Lamesa, Texas
Current Conditions -  °F | °C
As of 7:35 AM on Wednesday 26 Nov 2014 (Local Time) from KGNC Reporting Station
Clear Clear  
Wind Chill: 34°   Ceiling: Unl
Heat Index: 40°   Visibility: 10mi
Dew Point: 16°   Wind: 10mph
Humidity: 37%   Direction: 300°WNW
Pressure: 30.18"   Gusts: NA
Location:  32.74°N, 101.95°W
Report Text: KGNC 261335Z AUTO 30009KT 10SM CLR 05/M09 A3018 RMK AO2 T00471091
Loading
Personal Weather Stations






























Interactive Weather Map New forecast layout! Learn more

10-Day Weather Forecast

Advertisements
Track Severe Weather on mobile